Main page
METAR-TAF:

METAR-TAF

Airports :

Minorca, Spain

Menorca Airport

latitude: 39-52N, longitude: 004-14E, elevation: 87 m

Current weather observation

The report was made 42 minutes ago, at 16:00 UTC
Wind 7 kt from the South, varying between South/Southeast and Southwest
Temperature 28°C
Humidity 70%
Pressure 1015 hPa
Visibility 10 km or more
Scattered clouds at a height of 1600 ft

METAR: LEMH 221600Z 18007KT 150V230 9999 SCT016 28/22 Q1015

Time: 18:42 (16:42 UTC)

Forecast

The report was made 2 hours and 42 minutes ago, at 14:00 UTC
Forecast valid from 22 at 15 UTC to 23 at 15 UTC
Wind 10 kt from the South
Visibility 10 km or more
Scattered clouds at a height of 2200 ft
Becoming
from 23 at 00 UTC to 23 at 04 UTC
Wind 8 kt from the Northeast
Probability 30% :
Temporary
from 23 at 03 UTC to 23 at 09 UTC
Broken clouds at a height of 1400 ft

TAF: LEMH 221400Z 2215/2315 17010KT 9999 SCT022 TX30/2312Z TN23/2305Z BECMG 2300/2304 04008KT PROB30 TEMPO 2303/2309 BKN014

Weather observations and forecasts of more than 4000 airports (METAR and TAF reports).

The available stations are represented by yellow and red dots on the map.

Hover mouse over dot to see the name of the station.

Then click to see weather observations and forecasts.

To change the map : click on the green buttons with a black cross to zoom in, on the green button with a dash to zoom out, or on the green arrows for adjacent maps.


METAR-TAF: